Time,TemperatureF,DewpointF,PressureIn,WindDirection,WindDirectionDegrees,WindSpeedMPH,WindSpeedGustMPH,Humidity,HourlyPrecipIn,Conditions,Clouds,dailyrainin,SoftwareType,DateUTC
2013-03-30 00:00:00,66.3,60.3,30.11,SSE,158,6.0,15.0,81,0.00,,SKC,0.00,VWS V14.01,2013-03-30 05:00:00,
2013-03-30 00:30:00,65.7,60.4,30.12,SSE,158,5.0,13.0,83,0.00,,SKC,0.00,VWS V14.01,2013-03-30 05:30:00,
2013-03-30 01:00:00,65.6,60.6,30.12,SSE,158,3.0,11.0,84,0.00,,SKC,0.00,VWS V14.01,2013-03-30 06:00:00,
2013-03-30 01:30:00,65.4,60.8,30.12,SSE,158,4.0,11.0,85,0.00,,SKC,0.00,VWS V14.01,2013-03-30 06:30:00,
2013-03-30 02:00:00,65.2,60.9,30.11,SSE,158,4.0,11.0,86,0.00,,SKC,0.00,VWS V14.01,2013-03-30 07:00:00,
2013-03-30 02:30:00,65.1,60.8,30.09,SSE,158,5.0,16.0,86,0.00,,SKC,0.00,VWS V14.01,2013-03-30 07:30:00,
2013-03-30 03:30:00,64.9,60.9,30.08,SSE,158,4.0,13.0,87,0.00,,SKC,0.00,VWS V14.01,2013-03-30 08:30:00,
2013-03-30 04:00:00,64.8,60.8,30.07,South,180,5.0,15.0,87,0.00,,SKC,0.00,VWS V14.01,2013-03-30 09:00:00,
2013-03-30 04:30:00,64.6,60.7,30.06,South,180,6.0,16.0,87,0.00,,SKC,0.00,VWS V14.01,2013-03-30 09:30:00,
2013-03-30 05:00:00,64.5,60.9,30.06,South,180,6.0,18.0,88,0.00,,SKC,0.00,VWS V14.01,2013-03-30 10:00:00,
2013-03-30 05:30:00,64.3,60.7,30.07,South,180,6.0,15.0,88,0.00,,SKC,0.00,VWS V14.01,2013-03-30 10:30:00,
2013-03-30 06:00:00,64.3,60.7,30.09,South,180,2.0,9.0,88,0.00,,SKC,0.00,VWS V14.01,2013-03-30 11:00:00,
2013-03-30 06:30:00,64.2,60.9,30.08,South,180,3.0,10.0,89,0.00,,SKC,0.00,VWS V14.01,2013-03-30 11:30:00,
2013-03-30 07:00:00,64.1,60.8,30.09,SSE,158,3.0,10.0,89,0.00,,SKC,0.00,VWS V14.01,2013-03-30 12:00:00,
2013-03-30 07:30:00,64.0,60.7,30.09,SSE,158,4.0,10.0,89,0.00,,SKC,0.00,VWS V14.01,2013-03-30 12:30:00,
2013-03-30 08:00:00,63.8,60.8,30.08,SSE,158,3.0,10.0,90,0.00,,SKC,0.00,VWS V14.01,2013-03-30 13:00:00,
2013-03-30 08:30:00,63.8,60.8,30.09,SSE,158,3.0,10.0,90,0.00,,SKC,0.00,VWS V14.01,2013-03-30 13:30:00,
2013-03-30 09:00:00,64.2,61.2,30.09,SSE,158,3.0,12.0,90,0.00,,SKC,0.00,VWS V14.01,2013-03-30 14:00:00,
2013-03-30 09:30:00,64.5,61.5,30.09,SSW,202,6.0,21.0,90,0.00,,SKC,0.00,VWS V14.01,2013-03-30 14:30:00,
2013-03-30 10:00:00,64.8,61.8,30.08,South,180,6.0,18.0,90,0.00,,SKC,0.00,VWS V14.01,2013-03-30 15:00:00,
2013-03-30 10:30:00,65.6,62.3,30.08,South,180,5.0,12.0,89,0.00,,SKC,0.00,VWS V14.01,2013-03-30 15:30:00,
2013-03-30 11:00:00,66.7,62.7,30.08,SSW,202,5.0,12.0,87,0.00,,SKC,0.00,VWS V14.01,2013-03-30 16:00:00,
2013-03-30 11:30:00,68.1,62.8,30.08,South,180,5.0,14.0,83,0.00,,SKC,0.00,VWS V14.01,2013-03-30 16:30:00,
2013-03-30 12:00:00,70.4,64.3,30.07,SSW,202,5.0,16.0,81,0.00,,SKC,0.00,VWS V14.01,2013-03-30 17:00:00,
2013-03-30 12:30:00,72.5,64.5,30.06,SSW,202,6.0,12.0,76,0.00,,SKC,0.00,VWS V14.01,2013-03-30 17:30:00,
2013-03-30 13:00:00,75.6,64.7,30.05,SSW,202,6.0,15.0,69,0.00,,SKC,0.00,VWS V14.01,2013-03-30 18:00:00,
2013-03-30 13:30:00,77.9,64.8,30.04,South,180,6.0,16.0,64,0.00,,SKC,0.00,VWS V14.01,2013-03-30 18:30:00,
2013-03-30 14:00:00,79.1,64.0,30.02,SSW,202,5.0,16.0,60,0.00,,SKC,0.00,VWS V14.01,2013-03-30 19:00:00,
2013-03-30 14:30:00,80.4,63.8,30.00,SSE,158,5.0,13.0,57,0.00,,SKC,0.00,VWS V14.01,2013-03-30 19:30:00,
2013-03-30 15:00:00,79.8,63.2,29.98,South,180,5.0,14.0,57,0.00,,SKC,0.00,VWS V14.01,2013-03-30 20:00:00,
2013-03-30 15:30:00,80.7,62.0,29.97,SSW,202,5.0,15.0,53,0.00,,SKC,0.00,VWS V14.01,2013-03-30 20:30:00,
2013-03-30 16:00:00,80.7,62.0,29.96,South,180,5.0,13.0,53,0.00,,SKC,0.00,VWS V14.01,2013-03-30 21:00:00,
2013-03-30 16:30:00,81.4,62.1,29.94,SSW,202,6.0,16.0,52,0.00,,SKC,0.00,VWS V14.01,2013-03-30 21:30:00,
2013-03-30 17:00:00,81.2,62.5,29.94,South,180,5.0,13.0,53,0.00,,SKC,0.00,VWS V14.01,2013-03-30 22:00:00,
2013-03-30 17:30:00,82.1,62.8,29.93,South,180,5.0,14.0,52,0.00,,SKC,0.00,VWS V14.01,2013-03-30 22:30:00,
2013-03-30 18:00:00,81.9,62.0,29.92,South,180,5.0,14.0,51,0.00,,SKC,0.00,VWS V14.01,2013-03-30 23:00:00,
2013-03-30 18:30:00,82.1,62.2,29.92,SSW,202,4.0,13.0,51,0.00,,SKC,0.00,VWS V14.01,2013-03-30 23:30:00,
2013-03-30 19:00:00,81.6,61.7,29.91,SSW,202,4.0,12.0,51,0.00,,SKC,0.00,VWS V14.01,2013-03-31 00:00:00,
2013-03-30 19:30:00,80.6,61.9,29.91,SSW,202,3.0,11.0,53,0.00,,SKC,0.00,VWS V14.01,2013-03-31 00:30:00,
2013-03-30 20:00:00,79.2,61.7,29.91,South,180,1.0,9.0,55,0.00,,SKC,0.00,VWS V14.01,2013-03-31 01:00:00,
2013-03-30 20:30:00,77.6,61.7,29.91,South,180,0.0,2.0,58,0.00,,SKC,0.00,VWS V14.01,2013-03-31 01:30:00,
2013-03-30 21:00:00,75.7,61.3,29.92,South,180,0.0,2.0,61,0.00,,SKC,0.00,VWS V14.01,2013-03-31 02:00:00,
2013-03-30 21:30:00,74.4,61.4,29.93,SE,135,1.0,12.0,64,0.00,,SKC,0.00,VWS V14.01,2013-03-31 02:30:00,
2013-03-30 22:00:00,73.9,63.5,29.94,SSE,158,4.0,11.0,70,0.00,,SKC,0.00,VWS V14.01,2013-03-31 03:00:00,
2013-03-30 22:30:00,72.4,63.7,29.96,SSE,158,5.0,15.0,74,0.00,,SKC,0.00,VWS V14.01,2013-03-31 03:30:00,